createdAt,value
2019-03-28T00:02:08.319Z,5.60
2019-03-28T00:04:50.102Z,5.70
2019-03-28T00:07:32.040Z,5.70
2019-03-28T00:10:13.945Z,5.70
2019-03-28T00:12:56.033Z,5.70
2019-03-28T00:15:37.775Z,5.60
2019-03-28T00:18:20.620Z,5.70
2019-03-28T00:21:02.459Z,5.70
2019-03-28T00:26:52.504Z,5.70
2019-03-28T00:29:33.863Z,5.70
2019-03-28T00:32:15.739Z,5.70
2019-03-28T00:34:57.664Z,5.60
2019-03-28T00:37:39.395Z,5.60
2019-03-28T00:40:21.545Z,5.60
2019-03-28T00:43:03.231Z,5.50
2019-03-28T00:45:45.326Z,5.60
2019-03-28T00:48:27.393Z,5.70
2019-03-28T00:51:09.491Z,5.70
2019-03-28T00:53:51.483Z,5.60
2019-03-28T00:56:45.004Z,5.50
2019-03-28T00:59:17.544Z,5.50
2019-03-28T01:01:59.438Z,5.60
2019-03-28T01:04:41.479Z,5.60
2019-03-28T01:07:22.587Z,5.50
2019-03-28T01:10:04.588Z,5.50
2019-03-28T01:12:46.544Z,5.60
2019-03-28T01:15:28.360Z,5.60
2019-03-28T01:18:10.086Z,5.50
2019-03-28T01:20:52.268Z,5.70
2019-03-28T01:23:34.195Z,5.60
2019-03-28T01:26:16.055Z,5.60
2019-03-28T01:28:57.832Z,5.70
2019-03-28T01:31:39.760Z,5.60
2019-03-28T01:34:21.743Z,5.60
2019-03-28T01:37:04.209Z,5.50
2019-03-28T01:39:45.859Z,5.60
2019-03-28T01:42:28.889Z,5.50
2019-03-28T01:45:10.727Z,5.50
2019-03-28T01:47:52.707Z,5.60
2019-03-28T01:50:34.504Z,5.40
2019-03-28T01:53:15.653Z,5.60
2019-03-28T01:55:57.680Z,5.60
2019-03-28T01:58:40.503Z,5.50
2019-03-28T02:01:22.419Z,5.50
2019-03-28T02:04:04.383Z,5.60
2019-03-28T02:06:46.406Z,5.60
2019-03-28T02:09:28.223Z,5.60
2019-03-28T02:12:09.246Z,5.60
2019-03-28T02:14:50.945Z,5.50
2019-03-28T02:17:32.789Z,5.60
2019-03-28T02:20:14.831Z,5.60
2019-03-28T02:22:56.479Z,5.50
2019-03-28T02:25:38.474Z,5.50
2019-03-28T02:28:20.415Z,5.60
2019-03-28T02:31:01.495Z,5.60
2019-03-28T02:33:43.587Z,5.50
2019-03-28T02:36:25.565Z,5.50
2019-03-28T02:39:07.504Z,5.60
2019-03-28T02:41:49.263Z,5.50
2019-03-28T02:44:31.467Z,5.60
2019-03-28T02:47:13.510Z,5.50
2019-03-28T02:49:55.279Z,5.50
2019-03-28T02:52:37.256Z,5.60
2019-03-28T02:55:19.222Z,5.60
2019-03-28T02:58:01.137Z,5.60
2019-03-28T03:00:42.316Z,5.70
2019-03-28T03:03:24.189Z,5.60
2019-03-28T03:06:06.062Z,5.60
2019-03-28T03:08:48.085Z,5.60
2019-03-28T03:11:29.829Z,5.50
2019-03-28T03:14:12.055Z,5.50
2019-03-28T03:16:53.716Z,5.50
2019-03-28T03:19:35.684Z,5.50
2019-03-28T03:22:17.446Z,5.50
2019-03-28T03:24:59.485Z,5.40
2019-03-28T03:27:56.916Z,5.50
2019-03-28T03:30:25.189Z,5.50
2019-03-28T03:33:08.959Z,5.50
2019-03-28T03:35:50.775Z,5.50
2019-03-28T03:38:32.724Z,5.50
2019-03-28T03:41:14.521Z,5.60
2019-03-28T03:43:55.603Z,5.50
2019-03-28T03:46:37.479Z,5.50
2019-03-28T03:49:19.524Z,5.60
2019-03-28T03:52:01.598Z,5.40
2019-03-28T03:54:43.492Z,5.50
2019-03-28T03:57:25.412Z,5.50
2019-03-28T04:00:07.171Z,5.50
2019-03-28T04:02:49.096Z,5.50
2019-03-28T04:05:30.901Z,5.50
2019-03-28T04:08:12.878Z,5.60
2019-03-28T04:10:54.696Z,5.60
2019-03-28T04:13:36.570Z,5.50
2019-03-28T04:16:18.396Z,5.50
2019-03-28T04:19:00.290Z,5.40
2019-03-28T04:21:42.194Z,5.40
2019-03-28T04:24:23.368Z,5.50
2019-03-28T04:27:04.522Z,5.40
2019-03-28T04:29:46.636Z,5.40
2019-03-28T04:32:28.537Z,5.40
2019-03-28T04:35:10.590Z,5.40
2019-03-28T04:37:52.391Z,5.30
2019-03-28T04:40:34.536Z,5.30
2019-03-28T04:43:16.652Z,5.30
2019-03-28T04:45:58.780Z,5.40
2019-03-28T04:48:39.792Z,5.30
2019-03-28T04:51:21.628Z,5.30
2019-03-28T04:54:03.594Z,5.40
2019-03-28T04:56:45.402Z,5.40
2019-03-28T04:59:27.337Z,5.30
2019-03-28T05:02:09.199Z,5.30
2019-03-28T05:04:51.089Z,5.30
2019-03-28T05:07:33.116Z,5.40
2019-03-28T05:10:15.444Z,5.30
2019-03-28T05:12:56.976Z,5.40
2019-03-28T05:15:39.161Z,5.40
2019-03-28T05:18:21.099Z,5.40
2019-03-28T05:21:03.247Z,5.30
2019-03-28T05:23:44.312Z,5.30
2019-03-28T05:26:26.273Z,5.30
2019-03-28T05:29:08.051Z,5.20
2019-03-28T05:31:50.154Z,5.30
2019-03-28T05:34:31.988Z,5.30
2019-03-28T05:37:13.978Z,5.20
2019-03-28T05:39:55.795Z,5.30
2019-03-28T05:42:36.831Z,5.40
2019-03-28T05:45:18.641Z,5.40
2019-03-28T05:48:00.407Z,5.40
2019-03-28T05:50:42.511Z,5.50
2019-03-28T05:53:24.356Z,5.50
2019-03-28T05:56:06.309Z,5.40
2019-03-28T05:58:48.345Z,5.30
2019-03-28T06:01:29.308Z,5.50
2019-03-28T06:04:11.232Z,5.50
2019-03-28T06:06:53.325Z,5.50
2019-03-28T06:09:35.128Z,5.50
2019-03-28T06:12:19.010Z,5.50
2019-03-28T06:15:01.208Z,5.50
2019-03-28T06:17:44.016Z,5.40
2019-03-28T06:20:25.772Z,5.60
2019-03-28T06:23:06.663Z,5.60
2019-03-28T06:25:49.524Z,5.50
2019-03-28T06:28:31.505Z,5.60
2019-03-28T06:31:13.331Z,5.60
2019-03-28T06:33:55.500Z,5.60
2019-03-28T06:36:37.317Z,5.50
2019-03-28T06:39:19.203Z,5.70
2019-03-28T06:42:00.959Z,5.70
2019-03-28T06:44:43.985Z,5.80
2019-03-28T06:47:26.005Z,5.80
2019-03-28T06:50:07.851Z,5.70
2019-03-28T06:52:52.162Z,5.70
2019-03-28T06:55:36.676Z,5.70
2019-03-28T06:58:16.760Z,5.60
2019-03-28T07:00:58.720Z,5.60
2019-03-28T07:03:40.737Z,5.60
2019-03-28T07:06:22.508Z,5.70
2019-03-28T07:09:04.652Z,5.70
2019-03-28T07:11:46.621Z,5.70
2019-03-28T07:14:28.576Z,5.80
2019-03-28T07:17:10.380Z,5.70
2019-03-28T07:19:52.360Z,5.80
2019-03-28T07:22:34.389Z,5.80
2019-03-28T07:27:57.368Z,5.80
2019-03-28T07:30:39.180Z,5.70
2019-03-28T07:33:21.350Z,5.80
2019-03-28T07:36:03.052Z,5.80
2019-03-28T07:38:46.957Z,5.80
2019-03-28T07:41:28.945Z,5.80
2019-03-28T07:44:10.056Z,5.90
2019-03-28T07:46:51.785Z,5.90
2019-03-28T07:49:33.800Z,5.90
2019-03-28T07:52:15.728Z,5.90
2019-03-28T07:54:57.595Z,5.90
2019-03-28T07:57:39.664Z,5.90
2019-03-28T08:00:21.687Z,6.00
2019-03-28T08:03:02.631Z,6.00
2019-03-28T08:05:44.579Z,5.90
2019-03-28T08:08:38.345Z,5.90
2019-03-28T08:11:10.256Z,6.00
2019-03-28T08:13:52.291Z,6.00
2019-03-28T08:16:34.335Z,5.90
2019-03-28T08:19:16.246Z,6.00
2019-03-28T08:22:00.105Z,5.90
2019-03-28T08:24:41.912Z,6.00
2019-03-28T08:27:23.749Z,5.90
2019-03-28T08:30:17.532Z,6.00
2019-03-28T08:32:49.303Z,6.00
2019-03-28T08:35:31.024Z,6.00
2019-03-28T08:38:13.036Z,6.00
2019-03-28T08:40:55.047Z,6.00
2019-03-28T08:43:37.038Z,6.00
2019-03-28T08:46:18.920Z,6.10
2019-03-28T08:49:00.881Z,6.10
2019-03-28T08:51:42.815Z,6.00
2019-03-28T08:54:24.693Z,6.10
2019-03-28T08:57:06.655Z,6.10
2019-03-28T08:59:48.408Z,6.20
2019-03-28T09:02:30.504Z,6.20
2019-03-28T09:05:12.625Z,6.20
2019-03-28T09:07:54.529Z,6.20
2019-03-28T09:10:36.628Z,6.30
2019-03-28T09:13:18.510Z,6.20
2019-03-28T09:16:00.411Z,6.30
2019-03-28T09:18:42.354Z,6.20
2019-03-28T09:21:24.368Z,6.20
2019-03-28T09:24:06.433Z,6.30
2019-03-28T09:26:48.547Z,6.20
2019-03-28T09:29:30.364Z,6.20
2019-03-28T09:32:12.375Z,6.20
2019-03-28T09:34:54.328Z,6.20
2019-03-28T09:37:36.363Z,6.20
2019-03-28T09:40:18.475Z,6.20
2019-03-28T09:43:00.271Z,6.30
2019-03-28T09:45:42.360Z,6.20
2019-03-28T09:48:24.144Z,6.30
2019-03-28T09:51:06.083Z,6.40
2019-03-28T09:53:48.119Z,6.50
2019-03-28T09:56:30.021Z,6.50
2019-03-28T09:59:11.828Z,6.50
2019-03-28T10:01:53.632Z,6.50
2019-03-28T10:04:35.704Z,6.50
2019-03-28T10:07:17.522Z,6.60
2019-03-28T10:09:59.684Z,6.70
2019-03-28T10:12:43.879Z,6.60
2019-03-28T10:15:24.508Z,6.60
2019-03-28T10:18:06.400Z,6.50
2019-03-28T10:20:48.370Z,6.60
2019-03-28T10:23:30.274Z,6.60
2019-03-28T10:26:12.160Z,6.50
2019-03-28T10:28:54.200Z,6.60
2019-03-28T10:31:36.056Z,6.60
2019-03-28T10:34:18.041Z,6.60
2019-03-28T10:36:59.048Z,6.60
2019-03-28T10:39:41.167Z,6.70
2019-03-28T10:42:23.124Z,6.80
2019-03-28T10:44:51.275Z,6.70
2019-03-28T10:47:33.417Z,6.80
2019-03-28T10:50:15.331Z,6.90
2019-03-28T10:52:57.531Z,6.90
2019-03-28T10:55:39.445Z,6.80
2019-03-28T10:58:21.477Z,6.80
2019-03-28T11:01:03.475Z,6.90
2019-03-28T11:03:45.501Z,6.80
2019-03-28T11:06:27.562Z,6.90
2019-03-28T11:09:09.352Z,6.90
2019-03-28T11:11:51.424Z,6.90
2019-03-28T11:14:34.382Z,7.00
2019-03-28T11:17:16.373Z,7.00
2019-03-28T11:19:58.131Z,7.00
2019-03-28T11:22:40.115Z,7.00
2019-03-28T11:25:21.034Z,7.00
2019-03-28T11:28:03.169Z,7.10
2019-03-28T11:30:44.768Z,6.90
2019-03-28T11:33:26.780Z,7.00
2019-03-28T11:36:08.435Z,7.00
2019-03-28T11:38:50.255Z,6.90
2019-03-28T11:41:31.276Z,7.00
2019-03-28T11:44:13.271Z,6.90
2019-03-28T11:46:55.165Z,7.00
2019-03-28T11:49:37.056Z,6.90
2019-03-28T11:52:18.884Z,7.00
2019-03-28T11:55:00.895Z,7.10
2019-03-28T11:57:42.798Z,7.20
2019-03-28T12:00:24.588Z,7.10
2019-03-28T12:03:06.485Z,7.10
2019-03-28T12:05:48.559Z,7.20
2019-03-28T12:08:31.562Z,7.10
2019-03-28T12:11:13.499Z,7.10
2019-03-28T12:13:55.525Z,7.20
2019-03-28T12:16:37.388Z,7.20
2019-03-28T12:19:19.493Z,7.20
2019-03-28T12:22:01.391Z,7.20
2019-03-28T12:24:43.207Z,7.30
2019-03-28T12:27:25.313Z,7.30
2019-03-28T12:30:07.072Z,7.30
2019-03-28T12:32:49.073Z,7.20
2019-03-28T12:35:30.985Z,7.30
2019-03-28T12:38:12.856Z,7.20
2019-03-28T12:40:54.755Z,7.30
2019-03-28T12:43:36.756Z,7.40
2019-03-28T12:46:18.636Z,7.30
2019-03-28T12:49:00.557Z,7.40
2019-03-28T12:51:42.474Z,7.20
2019-03-28T12:54:24.464Z,7.30
2019-03-28T12:57:06.348Z,7.30
2019-03-28T12:59:48.474Z,7.30
2019-03-28T13:02:32.054Z,7.40
2019-03-28T13:05:14.204Z,7.50
2019-03-28T13:07:56.128Z,7.50
2019-03-28T13:10:37.993Z,7.50
2019-03-28T13:13:20.127Z,7.50
2019-03-28T13:16:02.153Z,7.50
2019-03-28T13:18:43.211Z,7.50
2019-03-28T13:21:25.331Z,7.70
2019-03-28T13:24:07.924Z,7.60
2019-03-28T13:26:50.031Z,7.70
2019-03-28T13:29:31.953Z,7.60
2019-03-28T13:32:13.872Z,7.70
2019-03-28T13:34:56.644Z,7.70
2019-03-28T13:37:38.452Z,7.80
2019-03-28T13:40:20.667Z,7.90
2019-03-28T13:43:02.656Z,7.80
2019-03-28T13:45:44.577Z,7.80
2019-03-28T13:48:26.769Z,7.90
2019-03-28T13:51:07.777Z,7.90
2019-03-28T13:53:52.116Z,7.90
2019-03-28T13:56:33.700Z,7.90
2019-03-28T13:59:15.487Z,7.80
2019-03-28T14:01:58.679Z,7.70
2019-03-28T14:04:40.691Z,7.70
2019-03-28T14:07:22.968Z,7.70
2019-03-28T14:10:05.415Z,7.70
2019-03-28T14:12:47.395Z,7.80
2019-03-28T14:15:29.415Z,7.70
2019-03-28T14:18:11.493Z,7.70
2019-03-28T14:20:53.288Z,7.60
2019-03-28T14:23:35.182Z,7.70
2019-03-28T14:26:17.136Z,7.50
2019-03-28T14:28:59.052Z,7.60
2019-03-28T14:31:41.975Z,7.60
2019-03-28T14:34:23.728Z,7.60
2019-03-28T14:37:05.940Z,7.80
2019-03-28T14:39:49.370Z,7.80
2019-03-28T14:42:30.855Z,7.80
2019-03-28T14:45:13.024Z,7.70
2019-03-28T14:47:54.828Z,7.70
2019-03-28T14:50:36.820Z,7.70
2019-03-28T14:53:21.974Z,7.50
2019-03-28T14:56:02.740Z,7.70
2019-03-28T14:58:44.555Z,7.70
2019-03-28T15:01:26.899Z,7.70
2019-03-28T15:04:08.341Z,7.70
2019-03-28T15:06:50.179Z,7.70
2019-03-28T15:09:32.336Z,7.70
2019-03-28T15:12:14.268Z,7.70
2019-03-28T15:14:56.285Z,7.60
2019-03-28T15:17:38.129Z,7.60
2019-03-28T15:20:19.993Z,7.50
2019-03-28T15:23:01.979Z,7.70
2019-03-28T15:25:43.901Z,7.70
2019-03-28T15:28:25.885Z,7.50
2019-03-28T15:31:07.849Z,7.70
2019-03-28T15:33:39.753Z,7.50
2019-03-28T15:36:32.122Z,7.60
2019-03-28T15:39:14.218Z,7.60
2019-03-28T15:41:56.210Z,7.60
2019-03-28T15:44:39.608Z,7.50
2019-03-28T15:47:22.364Z,7.40
2019-03-28T15:50:04.127Z,7.50
2019-03-28T15:52:47.121Z,7.50
2019-03-28T15:55:28.892Z,7.50
2019-03-28T15:58:22.628Z,7.50
2019-03-28T16:00:54.628Z,7.50
2019-03-28T16:03:36.596Z,7.50
2019-03-28T16:06:18.471Z,7.40
2019-03-28T16:09:00.520Z,7.40
2019-03-28T16:11:42.745Z,7.50
2019-03-28T16:14:24.692Z,7.50
2019-03-28T16:17:06.841Z,7.50
2019-03-28T16:19:48.817Z,7.50
2019-03-28T16:22:30.889Z,7.40
2019-03-28T16:25:12.906Z,7.50
2019-03-28T16:27:54.853Z,7.50
2019-03-28T16:30:36.893Z,7.50
2019-03-28T16:33:18.793Z,7.40
2019-03-28T16:36:00.719Z,7.50
2019-03-28T16:38:42.604Z,7.60
2019-03-28T16:41:24.465Z,7.60
2019-03-28T16:44:06.456Z,7.40
2019-03-28T16:46:48.280Z,7.50
2019-03-28T16:49:30.376Z,7.50
2019-03-28T16:52:12.227Z,7.50
2019-03-28T16:54:54.185Z,7.50
2019-03-28T16:57:38.513Z,7.60
2019-03-28T17:00:20.177Z,7.50
2019-03-28T17:03:02.067Z,7.50
2019-03-28T17:05:47.043Z,7.40
2019-03-28T17:08:28.255Z,7.40
2019-03-28T17:11:12.098Z,7.50
2019-03-28T17:13:54.467Z,7.40
2019-03-28T17:16:36.058Z,7.50
2019-03-28T17:19:17.943Z,7.40
2019-03-28T17:21:59.872Z,7.50
2019-03-28T17:24:28.118Z,7.30
2019-03-28T17:27:10.525Z,7.30
2019-03-28T17:29:52.642Z,7.30
2019-03-28T17:32:37.005Z,7.30
2019-03-28T17:35:19.468Z,7.40
2019-03-28T17:38:01.402Z,7.40
2019-03-28T17:40:43.495Z,7.40
2019-03-28T17:43:25.668Z,7.40
2019-03-28T17:46:07.599Z,7.40
2019-03-28T17:48:49.496Z,7.40
2019-03-28T17:51:31.560Z,7.40
2019-03-28T17:54:14.592Z,7.40
2019-03-28T17:56:55.854Z,7.50
2019-03-28T17:59:37.805Z,7.30
2019-03-28T18:02:06.160Z,7.30
2019-03-28T18:05:08.463Z,7.30
2019-03-28T18:10:21.378Z,7.30
2019-03-28T18:13:03.249Z,7.20
2019-03-28T18:15:45.317Z,7.30
2019-03-28T18:18:29.142Z,7.30
2019-03-28T18:21:11.096Z,7.30
2019-03-28T18:23:53.288Z,7.10
2019-03-28T18:26:35.084Z,7.20
2019-03-28T18:29:19.208Z,7.30
2019-03-28T18:32:00.877Z,7.30
2019-03-28T18:34:42.968Z,7.30
2019-03-28T18:37:24.739Z,7.40
2019-03-28T18:40:07.708Z,7.40
2019-03-28T18:42:49.656Z,7.30
2019-03-28T18:45:31.376Z,7.30
2019-03-28T18:48:26.932Z,7.20
2019-03-28T18:50:58.124Z,7.30
2019-03-28T18:53:40.201Z,7.20
2019-03-28T18:56:22.139Z,7.20
2019-03-28T18:59:03.988Z,7.20
2019-03-28T19:01:47.811Z,7.20
2019-03-28T19:04:29.728Z,7.20
2019-03-28T19:07:11.936Z,7.20
2019-03-28T19:09:53.928Z,7.20
2019-03-28T19:12:35.782Z,7.10
2019-03-28T19:15:17.796Z,7.20
2019-03-28T19:17:59.997Z,7.10
2019-03-28T19:20:41.889Z,7.20
2019-03-28T19:23:24.848Z,7.10
2019-03-28T19:26:06.771Z,7.10
2019-03-28T19:28:48.800Z,7.20
2019-03-28T19:31:30.668Z,7.20
2019-03-28T19:34:12.672Z,7.10
2019-03-28T19:36:55.791Z,7.20
2019-03-28T19:39:38.348Z,7.20
2019-03-28T19:42:22.603Z,7.20
2019-03-28T19:45:04.436Z,7.20
2019-03-28T19:47:46.348Z,7.20
2019-03-28T19:50:29.547Z,7.10
2019-03-28T19:53:11.898Z,7.20
2019-03-28T19:55:54.257Z,7.20
2019-03-28T19:58:36.012Z,7.10
2019-03-28T20:01:17.936Z,7.10
2019-03-28T20:03:59.823Z,7.10
2019-03-28T20:06:41.964Z,7.10
2019-03-28T20:09:23.780Z,7.20
2019-03-28T20:14:48.084Z,7.10
2019-03-28T20:17:29.920Z,7.10
2019-03-28T20:20:12.070Z,7.10
2019-03-28T20:22:54.256Z,7.10
2019-03-28T20:25:35.289Z,7.10
2019-03-28T20:28:17.379Z,7.10
2019-03-28T20:30:59.424Z,7.10
2019-03-28T20:33:41.510Z,7.10
2019-03-28T20:36:37.000Z,7.10
2019-03-28T20:39:07.984Z,7.00
2019-03-28T20:41:49.667Z,7.20
2019-03-28T20:44:31.627Z,7.20
2019-03-28T20:47:13.593Z,7.20
2019-03-28T20:49:54.820Z,7.10
2019-03-28T20:52:36.864Z,7.20
2019-03-28T20:55:18.927Z,7.10
2019-03-28T20:58:00.927Z,7.20
2019-03-28T21:00:48.427Z,7.20
2019-03-28T21:03:30.215Z,7.20
2019-03-28T21:06:15.474Z,7.30
2019-03-28T21:08:55.335Z,7.20
2019-03-28T21:11:37.348Z,7.20
2019-03-28T21:14:19.566Z,7.20
2019-03-28T21:17:01.094Z,7.20
2019-03-28T21:19:42.884Z,7.20
2019-03-28T21:22:24.928Z,7.10
2019-03-28T21:25:06.866Z,7.20
2019-03-28T21:28:09.735Z,7.20
2019-03-28T21:31:11.868Z,7.20
2019-03-28T21:34:13.996Z,7.30
2019-03-28T21:37:14.975Z,7.20
2019-03-28T21:40:25.342Z,7.20
2019-03-28T21:43:26.516Z,7.20
2019-03-28T21:46:08.724Z,7.20
2019-03-28T21:48:50.475Z,7.20
2019-03-28T21:51:32.584Z,7.20
2019-03-28T21:54:33.519Z,7.20
2019-03-28T21:57:20.602Z,7.20
2019-03-28T22:00:23.683Z,7.30
2019-03-28T22:03:25.535Z,7.30
2019-03-28T22:06:27.475Z,7.20
2019-03-28T22:09:29.339Z,7.20
2019-03-28T22:12:30.375Z,7.30
2019-03-28T22:15:40.623Z,7.20
2019-03-28T22:18:41.604Z,7.20
2019-03-28T22:21:43.832Z,7.20
2019-03-28T22:24:45.830Z,7.20
2019-03-28T22:27:47.610Z,7.20
2019-03-28T22:30:49.080Z,7.20
2019-03-28T22:33:50.132Z,7.20
2019-03-28T22:36:57.699Z,7.30
2019-03-28T22:39:56.178Z,7.30
2019-03-28T22:42:58.411Z,7.10
2019-03-28T22:46:06.351Z,7.20
2019-03-28T22:49:08.412Z,7.30
2019-03-28T22:52:10.504Z,7.30
2019-03-28T22:55:12.720Z,7.40
2019-03-28T22:58:15.808Z,7.30
2019-03-28T23:01:17.096Z,7.30
2019-03-28T23:04:21.136Z,7.30
2019-03-28T23:07:25.118Z,7.30
2019-03-28T23:10:26.308Z,7.30
2019-03-28T23:13:28.395Z,7.20
2019-03-28T23:16:30.447Z,7.30
2019-03-28T23:19:32.399Z,7.30
2019-03-28T23:22:33.975Z,7.40
2019-03-28T23:25:36.890Z,7.30
2019-03-28T23:28:38.751Z,7.30
2019-03-28T23:31:40.704Z,7.20
2019-03-28T23:34:42.660Z,7.30
2019-03-28T23:37:43.652Z,7.30
2019-03-28T23:40:55.171Z,7.30
2019-03-28T23:43:57.940Z,7.30
2019-03-28T23:46:59.719Z,7.40
2019-03-28T23:50:01.839Z,7.20
2019-03-28T23:53:02.850Z,7.20
2019-03-28T23:56:13.851Z,7.30
2019-03-28T23:59:14.938Z,7.20
